Terminal Aerodrome Forecast
Issued by NWS

Home | Current Version | Previous Version | Text Only | Print | Product List | Glossary On
Versions: 1 2 3 4 5 6 7 8 9 10 11 12 13 14 15
000
FTUS43 KICT 021120
TAFRSL
TAF
KRSL 021120Z 0212/0312 17010KT P6SM OVC250
     FM021700 18017G25KT P6SM BKN200
     FM030000 17018G26KT P6SM OVC020
     FM030400 17018G25KT 4SM BR OVC008=

USA.gov is the U.S. government's official web portal to all federal, state and local government web resources and services.